createdAt,value
2022-12-16T00:01:28.440Z,82.82
2022-12-16T00:03:59.957Z,68.15
2022-12-16T00:06:30.659Z,75.18
2022-12-16T00:08:59.934Z,85.40
2022-12-16T00:11:32.473Z,84.53
2022-12-16T00:14:06.676Z,82.85
2022-12-16T00:16:39.438Z,78.22
2022-12-16T00:19:10.905Z,68.95
2022-12-16T00:21:40.430Z,80.00
2022-12-16T00:24:09.464Z,78.00
2022-12-16T00:26:37.885Z,83.47
2022-12-16T00:29:11.078Z,78.22
2022-12-16T00:31:42.039Z,87.68
2022-12-16T00:34:11.961Z,73.00
2022-12-16T00:36:45.632Z,83.38
2022-12-16T00:39:15.495Z,78.88
2022-12-16T00:41:48.579Z,85.32
2022-12-16T00:44:20.516Z,71.07
2022-12-16T00:46:52.110Z,85.45
2022-12-16T00:49:25.323Z,84.13
2022-12-16T00:51:54.115Z,82.65
2022-12-16T00:54:24.079Z,70.57
2022-12-16T00:56:53.335Z,79.55
2022-12-16T00:59:24.999Z,73.78
2022-12-16T01:01:53.786Z,74.80
2022-12-16T01:04:27.785Z,76.68
2022-12-16T01:06:56.762Z,78.65
2022-12-16T01:09:25.414Z,79.75
2022-12-16T01:11:55.455Z,80.45
2022-12-16T01:14:26.319Z,88.82
2022-12-16T01:16:56.281Z,77.70
2022-12-16T01:19:26.080Z,76.95
2022-12-16T01:21:57.510Z,70.35
2022-12-16T01:24:29.759Z,61.58
2022-12-16T01:26:58.597Z,81.05
2022-12-16T01:29:27.716Z,75.18
2022-12-16T01:31:58.716Z,78.68
2022-12-16T01:34:28.174Z,83.57
2022-12-16T01:36:57.516Z,75.45
2022-12-16T01:39:27.470Z,82.20
2022-12-16T01:41:58.423Z,86.10
2022-12-16T01:44:27.811Z,79.25
2022-12-16T01:46:59.617Z,87.93
2022-12-16T01:49:31.706Z,82.82
2022-12-16T01:52:02.080Z,76.13
2022-12-16T01:54:40.399Z,73.22
2022-12-16T01:57:19.286Z,75.18
2022-12-16T01:59:49.870Z,79.78
2022-12-16T02:02:19.879Z,76.28
2022-12-16T02:05:08.883Z,76.75
2022-12-16T02:07:40.216Z,80.53
2022-12-16T02:10:11.956Z,79.32
2022-12-16T02:12:51.790Z,78.25
2022-12-16T02:15:26.154Z,70.20
2022-12-16T02:18:19.493Z,87.47
2022-12-16T02:20:47.720Z,67.07
2022-12-16T02:23:37.151Z,71.68
2022-12-16T02:26:17.313Z,69.40
2022-12-16T02:28:51.151Z,71.82
2022-12-16T02:31:27.427Z,76.60
2022-12-16T02:34:14.527Z,71.80
2022-12-16T02:36:45.484Z,81.22
2022-12-16T02:39:21.880Z,77.70
2022-12-16T02:42:09.017Z,79.05
2022-12-16T02:44:40.894Z,94.43
2022-12-16T02:47:09.475Z,67.68
2022-12-16T02:49:46.005Z,78.20
2022-12-16T02:52:18.552Z,74.53
2022-12-16T02:54:47.539Z,61.42
2022-12-16T02:57:26.639Z,70.20
2022-12-16T02:59:56.622Z,71.28
2022-12-16T03:02:37.535Z,71.80
2022-12-16T03:05:27.341Z,67.03
2022-12-16T03:07:57.017Z,70.05
2022-12-16T03:10:30.337Z,76.20
2022-12-16T03:13:00.688Z,70.57
2022-12-16T03:15:32.185Z,68.45
2022-12-16T03:18:07.610Z,70.50
2022-12-16T03:20:51.115Z,64.90
2022-12-16T03:23:29.172Z,76.45
2022-12-16T03:26:19.962Z,68.03
2022-12-16T03:28:55.069Z,70.85
2022-12-16T03:31:42.287Z,71.88
2022-12-16T03:34:17.725Z,68.47
2022-12-16T03:36:51.487Z,74.03
2022-12-16T03:39:23.885Z,73.45
2022-12-16T03:41:53.897Z,77.40
2022-12-16T03:44:26.199Z,64.82
2022-12-16T03:46:58.022Z,76.22
2022-12-16T03:49:26.561Z,71.68
2022-12-16T03:51:56.299Z,67.32
2022-12-16T03:54:25.812Z,60.15
2022-12-16T03:56:54.303Z,70.50
2022-12-16T03:59:22.687Z,67.20
2022-12-16T04:01:55.370Z,74.70
2022-12-16T04:04:25.199Z,54.33
2022-12-16T04:07:08.053Z,73.20
2022-12-16T04:09:37.152Z,66.05
2022-12-16T04:15:14.387Z,69.20
2022-12-16T04:21:14.398Z,70.95
2022-12-16T04:24:11.485Z,69.13
2022-12-16T04:26:54.135Z,63.00
2022-12-16T04:29:24.351Z,71.63
2022-12-16T04:31:53.044Z,71.70
2022-12-16T04:34:27.403Z,76.00
2022-12-16T04:37:17.876Z,59.83
2022-12-16T04:40:08.117Z,65.82
2022-12-16T04:43:01.577Z,62.40
2022-12-16T04:45:50.499Z,67.18
2022-12-16T04:48:36.255Z,61.58
2022-12-16T04:51:22.173Z,63.63
2022-12-16T04:54:10.978Z,65.57
2022-12-16T04:57:03.629Z,62.97
2022-12-16T04:59:54.834Z,61.75
2022-12-16T05:02:43.289Z,58.95
2022-12-16T05:05:33.264Z,59.42
2022-12-16T05:08:22.385Z,58.80
2022-12-16T05:11:10.665Z,48.75
2022-12-16T05:14:00.042Z,60.25
2022-12-16T05:16:48.825Z,63.25
2022-12-16T05:19:35.171Z,62.03
2022-12-16T05:22:24.737Z,65.70
2022-12-16T05:25:11.636Z,59.38
2022-12-16T05:28:03.915Z,61.03
2022-12-16T05:30:52.514Z,67.30
2022-12-16T05:33:41.485Z,70.72
2022-12-16T05:36:29.063Z,77.63
2022-12-16T05:39:20.063Z,82.13
2022-12-16T05:42:06.741Z,70.55
2022-12-16T05:44:59.054Z,71.78
2022-12-16T05:47:49.811Z,66.22
2022-12-16T05:50:36.201Z,71.75
2022-12-16T05:53:31.479Z,84.38
2022-12-16T05:56:19.760Z,68.38
2022-12-16T05:59:06.287Z,55.63
2022-12-16T06:01:52.908Z,58.40
2022-12-16T06:04:42.396Z,65.75
2022-12-16T06:07:28.337Z,52.50
2022-12-16T06:10:16.767Z,72.30
2022-12-16T06:13:05.770Z,65.80
2022-12-16T06:15:55.459Z,56.75
2022-12-16T06:18:41.203Z,70.28
2022-12-16T06:21:30.592Z,59.95
2022-12-16T06:24:18.142Z,59.35
2022-12-16T06:27:06.235Z,63.92
2022-12-16T06:29:55.714Z,64.13
2022-12-16T06:32:46.056Z,58.92
2022-12-16T06:35:32.473Z,67.72
2022-12-16T06:38:24.450Z,60.90
2022-12-16T06:41:10.534Z,53.25
2022-12-16T06:43:58.840Z,68.05
2022-12-16T06:46:48.843Z,56.95
2022-12-16T06:49:35.314Z,67.55
2022-12-16T06:52:31.124Z,57.38
2022-12-16T06:55:17.883Z,52.78
2022-12-16T06:58:25.989Z,66.03
2022-12-16T07:01:13.397Z,69.88
2022-12-16T07:04:03.994Z,67.35
2022-12-16T07:06:57.923Z,76.72
2022-12-16T07:09:51.414Z,69.93
2022-12-16T07:12:39.560Z,72.35
2022-12-16T07:15:28.457Z,72.32
2022-12-16T07:18:20.784Z,69.95
2022-12-16T07:21:06.810Z,69.85
2022-12-16T07:23:55.050Z,69.47
2022-12-16T07:26:41.750Z,66.88
2022-12-16T07:29:31.272Z,59.35
2022-12-16T07:32:20.250Z,57.25
2022-12-16T07:35:13.677Z,59.60
2022-12-16T07:38:02.417Z,57.72
2022-12-16T07:40:50.160Z,72.45
2022-12-16T07:43:39.594Z,66.25
2022-12-16T07:46:25.794Z,69.32
2022-12-16T07:49:13.724Z,75.85
2022-12-16T07:52:00.670Z,63.33
2022-12-16T07:54:48.552Z,64.35
2022-12-16T07:57:37.531Z,58.20
2022-12-16T08:00:25.367Z,68.10
2022-12-16T08:03:28.050Z,72.60
2022-12-16T08:06:15.805Z,62.60
2022-12-16T08:09:02.921Z,79.97
2022-12-16T08:11:52.759Z,82.28
2022-12-16T08:14:39.713Z,60.22
2022-12-16T08:17:26.656Z,66.20
2022-12-16T08:20:14.623Z,88.60
2022-12-16T08:23:07.072Z,77.32
2022-12-16T08:25:58.735Z,84.82
2022-12-16T08:28:44.470Z,72.72
2022-12-16T08:31:30.349Z,90.22
2022-12-16T08:34:18.753Z,77.90
2022-12-16T08:37:19.312Z,87.03
2022-12-16T08:40:33.601Z,74.30
2022-12-16T08:43:15.283Z,67.25
2022-12-16T08:46:11.720Z,75.45
2022-12-16T08:48:58.584Z,86.32
2022-12-16T08:51:47.964Z,85.70
2022-12-16T08:54:39.389Z,84.90
2022-12-16T08:57:30.824Z,92.43
2022-12-16T09:00:47.677Z,93.82
2022-12-16T09:03:54.983Z,148.65
2022-12-16T09:06:46.210Z,105.82
2022-12-16T09:09:41.940Z,94.10
2022-12-16T09:12:31.875Z,101.47
2022-12-16T09:15:21.322Z,82.97
2022-12-16T09:18:14.660Z,83.68
2022-12-16T09:21:00.810Z,104.35
2022-12-16T09:23:48.515Z,78.95
2022-12-16T09:26:44.853Z,81.45
2022-12-16T09:29:33.824Z,92.18
2022-12-16T09:32:18.486Z,88.70
2022-12-16T09:35:23.095Z,87.53
2022-12-16T09:38:11.039Z,91.35
2022-12-16T09:41:01.549Z,79.22
2022-12-16T09:44:07.015Z,83.22
2022-12-16T09:46:53.170Z,85.18
2022-12-16T09:49:42.251Z,99.75
2022-12-16T09:52:32.784Z,96.10
2022-12-16T09:55:19.101Z,93.38
2022-12-16T09:58:11.170Z,100.57
2022-12-16T10:01:00.383Z,96.00
2022-12-16T10:03:57.038Z,98.65
2022-12-16T10:06:56.041Z,92.35
2022-12-16T10:09:46.420Z,100.55
2022-12-16T10:12:41.678Z,92.93
2022-12-16T10:15:44.514Z,101.03
2022-12-16T10:18:58.947Z,107.00
2022-12-16T10:21:51.658Z,100.15
2022-12-16T10:24:40.550Z,98.75
2022-12-16T10:27:35.907Z,100.63
2022-12-16T10:30:30.702Z,111.18
2022-12-16T10:33:27.688Z,104.40
2022-12-16T10:36:14.780Z,109.78
2022-12-16T10:39:07.793Z,99.63
2022-12-16T10:41:58.689Z,120.32
2022-12-16T10:44:52.727Z,117.63
2022-12-16T10:47:43.679Z,110.38
2022-12-16T10:50:31.729Z,105.20
2022-12-16T10:53:21.503Z,109.07
2022-12-16T10:56:41.645Z,107.22
2022-12-16T10:59:30.243Z,114.50
2022-12-16T11:02:24.128Z,120.50
2022-12-16T11:05:10.467Z,109.13
2022-12-16T11:08:03.881Z,101.80
2022-12-16T11:10:56.313Z,116.68
2022-12-16T11:13:47.586Z,111.20
2022-12-16T11:16:40.875Z,108.57
2022-12-16T11:19:40.054Z,106.53
2022-12-16T11:22:31.311Z,105.88
2022-12-16T11:25:31.859Z,106.80
2022-12-16T11:28:24.028Z,106.03
2022-12-16T11:31:12.040Z,104.93
2022-12-16T11:34:07.165Z,117.03
2022-12-16T11:36:55.478Z,104.28
2022-12-16T11:39:45.920Z,108.43
2022-12-16T11:42:45.879Z,100.40
2022-12-16T11:45:33.537Z,105.95
2022-12-16T11:48:25.440Z,104.15
2022-12-16T11:51:13.033Z,106.97
2022-12-16T11:54:19.098Z,106.65
2022-12-16T11:57:05.359Z,115.38
2022-12-16T12:00:06.143Z,120.82
2022-12-16T12:03:21.864Z,114.78
2022-12-16T12:06:14.295Z,113.93
2022-12-16T12:09:19.372Z,106.63
2022-12-16T12:12:14.618Z,97.45
2022-12-16T12:15:20.802Z,100.60
2022-12-16T12:18:06.523Z,101.97
2022-12-16T12:21:01.426Z,91.28
2022-12-16T12:24:00.271Z,104.65
2022-12-16T12:26:49.340Z,91.53
2022-12-16T12:29:44.582Z,92.60
2022-12-16T12:32:48.626Z,106.38
2022-12-16T12:35:53.573Z,92.97
2022-12-16T12:38:47.750Z,105.95
2022-12-16T12:41:56.814Z,104.40
2022-12-16T12:44:48.894Z,105.95
2022-12-16T12:47:36.065Z,117.60
2022-12-16T12:50:35.951Z,98.90
2022-12-16T12:53:34.388Z,111.45
2022-12-16T12:56:34.936Z,112.28
2022-12-16T12:59:27.137Z,122.63
2022-12-16T13:02:28.804Z,119.97
2022-12-16T13:05:23.994Z,117.97
2022-12-16T13:08:13.650Z,108.40
2022-12-16T13:11:15.980Z,120.78
2022-12-16T13:14:01.863Z,123.28
2022-12-16T13:17:05.237Z,120.82
2022-12-16T13:19:53.126Z,125.45
2022-12-16T13:22:46.206Z,128.82
2022-12-16T13:25:51.107Z,128.00
2022-12-16T13:28:57.372Z,112.75
2022-12-16T13:31:43.977Z,112.40
2022-12-16T13:34:33.780Z,125.53
2022-12-16T13:37:29.816Z,112.95
2022-12-16T13:40:32.569Z,112.47
2022-12-16T13:43:23.854Z,123.72
2022-12-16T13:46:18.354Z,120.43
2022-12-16T13:49:04.159Z,124.53
2022-12-16T13:51:55.779Z,121.63
2022-12-16T13:54:49.874Z,103.63
2022-12-16T13:57:36.940Z,112.72
2022-12-16T14:00:23.901Z,116.15
2022-12-16T14:03:18.918Z,125.82
2022-12-16T14:06:08.373Z,124.05
2022-12-16T14:08:56.933Z,125.93
2022-12-16T14:11:48.815Z,130.77
2022-12-16T14:14:39.234Z,177.35
2022-12-16T14:17:40.756Z,137.27
2022-12-16T14:20:45.275Z,129.25
2022-12-16T14:23:58.013Z,132.75
2022-12-16T14:26:44.859Z,147.00
2022-12-16T14:29:50.060Z,141.65
2022-12-16T14:32:42.414Z,147.23
2022-12-16T14:35:32.367Z,144.68
2022-12-16T14:38:31.215Z,150.32
2022-12-16T14:41:17.008Z,149.98
2022-12-16T14:44:03.147Z,155.63
2022-12-16T14:46:50.539Z,155.43
2022-12-16T14:49:36.744Z,147.25
2022-12-16T14:52:35.037Z,156.60
2022-12-16T14:55:36.598Z,148.30
2022-12-16T14:58:29.051Z,166.38
2022-12-16T15:01:20.327Z,142.35
2022-12-16T15:04:07.747Z,145.00
2022-12-16T15:06:59.522Z,149.15
2022-12-16T15:09:48.087Z,155.93
2022-12-16T15:12:54.810Z,159.75
2022-12-16T15:15:51.039Z,150.80
2022-12-16T15:19:06.111Z,140.52
2022-12-16T15:21:52.754Z,168.15
2022-12-16T15:24:41.671Z,157.82
2022-12-16T15:27:33.524Z,165.38
2022-12-16T15:30:20.399Z,157.55
2022-12-16T15:33:13.778Z,164.10
2022-12-16T15:36:02.083Z,144.30
2022-12-16T15:38:50.742Z,154.73
2022-12-16T15:41:54.955Z,155.50
2022-12-16T15:44:45.238Z,174.40
2022-12-16T15:47:39.229Z,161.45
2022-12-16T15:53:11.367Z,169.07
2022-12-16T15:56:04.500Z,184.48
2022-12-16T15:58:52.770Z,162.70
2022-12-16T16:01:41.972Z,194.25
2022-12-16T16:04:37.564Z,162.18
2022-12-16T16:07:32.589Z,188.25
2022-12-16T16:10:34.035Z,204.82
2022-12-16T16:13:20.387Z,190.57
2022-12-16T16:16:08.587Z,169.95
2022-12-16T16:18:58.089Z,209.50
2022-12-16T16:21:44.432Z,193.85
2022-12-16T16:24:33.472Z,161.93
2022-12-16T16:27:21.229Z,168.52
2022-12-16T16:30:12.855Z,178.30
2022-12-16T16:33:18.594Z,168.48
2022-12-16T16:36:06.162Z,185.13
2022-12-16T16:38:54.417Z,273.42
2022-12-16T16:41:41.381Z,173.63
2022-12-16T16:44:29.698Z,183.35
2022-12-16T16:47:16.516Z,155.20
2022-12-16T16:50:06.166Z,153.10
2022-12-16T16:52:52.187Z,173.10
2022-12-16T16:55:39.673Z,144.50
2022-12-16T16:58:34.732Z,159.35
2022-12-16T17:01:21.008Z,152.40
2022-12-16T17:04:10.054Z,180.80
2022-12-16T17:06:56.028Z,191.38
2022-12-16T17:09:42.029Z,176.00
2022-12-16T17:12:48.681Z,169.02
2022-12-16T17:15:40.431Z,189.63
2022-12-16T17:18:29.074Z,172.10
2022-12-16T17:21:15.096Z,176.30
2022-12-16T17:24:08.207Z,169.70
2022-12-16T17:26:59.674Z,161.23
2022-12-16T17:29:50.143Z,172.75
2022-12-16T17:32:36.762Z,175.93
2022-12-16T17:35:23.666Z,181.73
2022-12-16T17:38:10.060Z,197.50
2022-12-16T17:40:56.019Z,228.43
2022-12-16T17:43:42.494Z,178.98
2022-12-16T17:46:30.575Z,197.27
2022-12-16T17:49:18.939Z,225.73
2022-12-16T17:52:08.180Z,177.27
2022-12-16T17:54:58.276Z,216.30
2022-12-16T17:57:44.607Z,170.82
2022-12-16T18:00:32.329Z,197.80
2022-12-16T18:03:30.383Z,205.20
2022-12-16T18:06:16.819Z,208.45
2022-12-16T18:09:03.302Z,204.05
2022-12-16T18:11:51.901Z,193.82
2022-12-16T18:14:40.217Z,196.30
2022-12-16T18:17:27.146Z,204.75
2022-12-16T18:20:15.373Z,183.32
2022-12-16T18:23:04.148Z,203.18
2022-12-16T18:25:50.287Z,192.45
2022-12-16T18:28:38.871Z,196.55
2022-12-16T18:31:29.973Z,204.10
2022-12-16T18:34:20.807Z,187.35
2022-12-16T18:37:06.960Z,194.93
2022-12-16T18:39:52.859Z,196.90
2022-12-16T18:42:38.870Z,210.60
2022-12-16T18:45:24.734Z,181.05
2022-12-16T18:48:17.111Z,191.05
2022-12-16T18:51:03.132Z,189.35
2022-12-16T18:53:50.504Z,176.88
2022-12-16T18:56:41.777Z,197.57
2022-12-16T18:59:27.843Z,172.05
2022-12-16T19:02:14.801Z,188.43
2022-12-16T19:05:02.289Z,200.35
2022-12-16T19:08:02.196Z,163.27
2022-12-16T19:10:57.247Z,174.98
2022-12-16T19:16:35.843Z,163.80
2022-12-16T19:19:21.991Z,166.52
2022-12-16T19:22:08.394Z,164.95
2022-12-16T19:24:56.357Z,169.65
2022-12-16T19:27:44.813Z,169.65
2022-12-16T19:30:36.167Z,154.60
2022-12-16T19:33:28.103Z,166.38
2022-12-16T19:36:15.511Z,168.20
2022-12-16T19:39:04.269Z,168.93
2022-12-16T19:41:53.528Z,166.45
2022-12-16T19:44:43.252Z,178.90
2022-12-16T19:47:29.208Z,168.50
2022-12-16T19:50:15.517Z,166.15
2022-12-16T19:53:08.187Z,180.73
2022-12-16T19:55:57.177Z,201.80
2022-12-16T19:58:45.280Z,172.15
2022-12-16T20:01:33.853Z,165.77
2022-12-16T20:04:25.153Z,162.15
2022-12-16T20:07:11.751Z,160.93
2022-12-16T20:09:56.968Z,162.02
2022-12-16T20:12:51.144Z,133.65
2022-12-16T20:15:37.532Z,148.35
2022-12-16T20:18:25.559Z,144.57
2022-12-16T20:21:19.276Z,124.78
2022-12-16T20:24:05.671Z,153.77
2022-12-16T20:26:53.726Z,141.55
2022-12-16T20:29:43.850Z,139.43
2022-12-16T20:32:30.795Z,140.20
2022-12-16T20:35:17.630Z,137.30
2022-12-16T20:38:04.684Z,141.70
2022-12-16T20:40:51.725Z,153.07
2022-12-16T20:43:38.733Z,144.63
2022-12-16T20:46:25.359Z,150.38
2022-12-16T20:49:13.827Z,151.18
2022-12-16T20:52:01.933Z,158.70
2022-12-16T20:54:48.299Z,148.85
2022-12-16T20:57:45.658Z,136.90
2022-12-16T21:00:32.197Z,141.32
2022-12-16T21:03:51.791Z,142.60
2022-12-16T21:06:40.905Z,159.05
2022-12-16T21:09:29.520Z,134.60
2022-12-16T21:12:15.915Z,132.73
2022-12-16T21:15:07.708Z,134.13
2022-12-16T21:17:57.876Z,148.07
2022-12-16T21:20:44.964Z,150.10
2022-12-16T21:23:34.952Z,146.98
2022-12-16T21:26:25.027Z,128.82
2022-12-16T21:29:13.182Z,132.18
2022-12-16T21:31:59.625Z,142.48
2022-12-16T21:34:47.967Z,136.18
2022-12-16T21:37:35.058Z,140.88
2022-12-16T21:40:21.563Z,143.10
2022-12-16T21:43:11.121Z,122.70
2022-12-16T21:45:59.684Z,139.75
2022-12-16T21:48:45.721Z,129.80
2022-12-16T21:51:32.628Z,159.07
2022-12-16T21:54:21.017Z,140.65
2022-12-16T21:57:09.656Z,154.00
2022-12-16T22:00:00.860Z,163.48
2022-12-16T22:02:54.896Z,158.50
2022-12-16T22:05:42.967Z,130.20
2022-12-16T22:08:32.583Z,171.63
2022-12-16T22:11:27.150Z,159.60
2022-12-16T22:14:14.136Z,158.77
2022-12-16T22:17:04.373Z,149.85
2022-12-16T22:19:53.515Z,149.27
2022-12-16T22:22:43.779Z,137.82
2022-12-16T22:25:29.990Z,140.20
2022-12-16T22:28:16.911Z,149.52
2022-12-16T22:31:03.413Z,139.57
2022-12-16T22:33:50.657Z,167.77
2022-12-16T22:36:43.240Z,149.32
2022-12-16T22:39:29.399Z,144.70
2022-12-16T22:42:16.139Z,176.57
2022-12-16T22:45:02.062Z,173.77
2022-12-16T22:47:50.131Z,161.00
2022-12-16T22:50:41.239Z,139.45
2022-12-16T22:53:31.562Z,159.75
2022-12-16T22:56:18.253Z,193.38
2022-12-16T22:59:19.058Z,145.27
2022-12-16T23:02:06.149Z,155.07
2022-12-16T23:04:52.263Z,145.43
2022-12-16T23:07:38.239Z,136.48
2022-12-16T23:10:26.739Z,149.95
2022-12-16T23:13:12.912Z,152.10
2022-12-16T23:16:07.588Z,155.25
2022-12-16T23:19:06.820Z,167.88
2022-12-16T23:21:55.709Z,142.55
2022-12-16T23:24:45.481Z,148.20
2022-12-16T23:27:31.688Z,123.75
2022-12-16T23:30:18.561Z,148.10
2022-12-16T23:33:19.992Z,128.40
2022-12-16T23:36:09.644Z,144.10
2022-12-16T23:39:04.710Z,142.15
2022-12-16T23:41:53.626Z,134.80
2022-12-16T23:44:43.035Z,149.57
2022-12-16T23:47:30.051Z,157.18
2022-12-16T23:50:18.568Z,127.85
2022-12-16T23:53:04.814Z,126.10
2022-12-16T23:55:53.716Z,131.93
2022-12-16T23:58:43.042Z,135.77
